createdAt,value
2019-05-14T00:00:41.547Z,1029.79
2019-05-14T00:01:38.851Z,1029.73
2019-05-14T00:02:41.192Z,1029.73
2019-05-14T00:03:41.202Z,1029.73
2019-05-14T00:04:38.818Z,1029.72
2019-05-14T00:05:38.817Z,1029.67
2019-05-14T00:06:38.813Z,1029.72
2019-05-14T00:07:41.212Z,1029.71
2019-05-14T00:08:38.774Z,1029.72
2019-05-14T00:09:41.148Z,1029.72
2019-05-14T00:10:38.752Z,1029.72
2019-05-14T00:11:38.794Z,1029.77
2019-05-14T00:12:38.734Z,1029.79
2019-05-14T00:13:38.778Z,1029.77
2019-05-14T00:14:40.274Z,1029.78
2019-05-14T00:15:38.845Z,1029.72
2019-05-14T00:16:38.714Z,1029.72
2019-05-14T00:17:38.774Z,1029.76
2019-05-14T00:18:38.674Z,1029.79
2019-05-14T00:19:41.358Z,1029.79
2019-05-14T00:20:38.639Z,1029.74
2019-05-14T00:21:38.725Z,1029.74
2019-05-14T00:22:38.614Z,1029.74
2019-05-14T00:23:38.610Z,1029.77
2019-05-14T00:24:38.636Z,1029.75
2019-05-14T00:25:38.587Z,1029.73
2019-05-14T00:26:38.572Z,1029.74
2019-05-14T00:27:38.562Z,1029.75
2019-05-14T00:28:38.561Z,1029.76
2019-05-14T00:29:38.580Z,1029.75
2019-05-14T00:30:38.525Z,1029.77
2019-05-14T00:31:38.515Z,1029.73
2019-05-14T00:32:38.501Z,1029.69
2019-05-14T00:33:38.499Z,1029.67
2019-05-14T00:34:38.479Z,1029.65
2019-05-14T00:35:38.499Z,1029.65
2019-05-14T00:36:38.457Z,1029.64
2019-05-14T00:37:38.448Z,1029.62
2019-05-14T00:38:38.432Z,1029.59
2019-05-14T00:39:38.427Z,1029.66
2019-05-14T00:40:38.442Z,1029.65
2019-05-14T00:41:38.403Z,1029.65
2019-05-14T00:42:38.426Z,1029.65
2019-05-14T00:43:38.386Z,1029.67
2019-05-14T00:44:51.596Z,1029.68
2019-05-14T00:45:41.635Z,1029.67
2019-05-14T00:46:38.356Z,1029.66
2019-05-14T00:47:38.335Z,1029.65
2019-05-14T00:48:38.322Z,1029.68
2019-05-14T00:49:38.319Z,1029.66
2019-05-14T00:50:38.330Z,1029.62
2019-05-14T00:51:38.311Z,1029.67
2019-05-14T00:52:38.286Z,1029.69
2019-05-14T00:53:38.268Z,1029.65
2019-05-14T00:54:38.257Z,1029.66
2019-05-14T00:55:38.274Z,1029.67
2019-05-14T00:56:38.233Z,1029.65
2019-05-14T00:57:38.222Z,1029.62
2019-05-14T00:58:38.220Z,1029.63
2019-05-14T00:59:38.196Z,1029.60
2019-05-14T01:00:38.211Z,1029.67
2019-05-14T01:01:38.172Z,1029.60
2019-05-14T01:02:38.170Z,1029.64
2019-05-14T01:03:38.165Z,1029.64
2019-05-14T01:04:38.152Z,1029.61
2019-05-14T01:05:38.157Z,1029.62
2019-05-14T01:06:38.116Z,1029.57
2019-05-14T01:07:38.109Z,1029.62
2019-05-14T01:08:38.099Z,1029.59
2019-05-14T01:09:38.081Z,1029.57
2019-05-14T01:10:38.108Z,1029.55
2019-05-14T01:11:38.061Z,1029.54
2019-05-14T01:12:38.049Z,1029.50
2019-05-14T01:13:38.044Z,1029.55
2019-05-14T01:14:38.139Z,1029.55
2019-05-14T01:15:38.047Z,1029.53
2019-05-14T01:16:38.247Z,1029.55
2019-05-14T01:17:38.020Z,1029.59
2019-05-14T01:18:38.026Z,1029.56
2019-05-14T01:19:37.971Z,1029.56
2019-05-14T01:20:38.002Z,1029.58
2019-05-14T01:21:37.958Z,1029.56
2019-05-14T01:22:37.956Z,1029.56
2019-05-14T01:23:37.923Z,1029.53
2019-05-14T01:24:37.917Z,1029.52
2019-05-14T01:25:37.927Z,1029.53
2019-05-14T01:26:37.968Z,1029.52
2019-05-14T01:27:37.887Z,1029.52
2019-05-14T01:28:37.912Z,1029.48
2019-05-14T01:29:37.859Z,1029.41
2019-05-14T01:30:37.946Z,1029.39
2019-05-14T01:31:37.882Z,1029.38
2019-05-14T01:32:37.842Z,1029.35
2019-05-14T01:33:37.817Z,1029.39
2019-05-14T01:34:37.857Z,1029.37
2019-05-14T01:35:37.792Z,1029.35
2019-05-14T01:36:37.881Z,1029.33
2019-05-14T01:37:37.776Z,1029.32
2019-05-14T01:38:37.756Z,1029.30
2019-05-14T01:39:37.746Z,1029.30
2019-05-14T01:40:37.759Z,1029.28
2019-05-14T01:41:37.744Z,1029.23
2019-05-14T01:42:37.719Z,1029.22
2019-05-14T01:43:37.708Z,1029.16
2019-05-14T01:44:37.687Z,1029.16
2019-05-14T01:45:37.678Z,1029.13
2019-05-14T01:46:37.691Z,1029.15
2019-05-14T01:47:37.654Z,1029.12
2019-05-14T01:48:37.643Z,1029.09
2019-05-14T01:49:37.638Z,1029.09
2019-05-14T01:50:37.621Z,1029.06
2019-05-14T01:51:37.636Z,1029.01
2019-05-14T01:52:37.597Z,1029.00
2019-05-14T01:53:37.596Z,1028.94
2019-05-14T01:54:37.604Z,1028.98
2019-05-14T01:55:37.565Z,1029.00
2019-05-14T01:56:37.584Z,1029.03
2019-05-14T01:57:37.542Z,1028.99
2019-05-14T01:58:37.542Z,1028.98
2019-05-14T01:59:37.522Z,1029.00
2019-05-14T02:00:37.509Z,1029.02
2019-05-14T02:01:37.533Z,1029.02
2019-05-14T02:02:37.521Z,1029.03
2019-05-14T02:03:37.490Z,1029.05
2019-05-14T02:04:37.467Z,1029.01
2019-05-14T02:05:37.453Z,1029.03
2019-05-14T02:06:37.446Z,1029.03
2019-05-14T02:07:37.457Z,1029.00
2019-05-14T02:08:37.418Z,1028.99
2019-05-14T02:09:37.406Z,1028.96
2019-05-14T02:10:37.403Z,1028.94
2019-05-14T02:11:37.388Z,1028.96
2019-05-14T02:12:37.400Z,1028.98
2019-05-14T02:13:37.373Z,1028.96
2019-05-14T02:14:37.354Z,1028.99
2019-05-14T02:15:40.605Z,1028.95
2019-05-14T02:16:38.334Z,1028.96
2019-05-14T02:17:37.346Z,1028.94
2019-05-14T02:18:37.309Z,1028.95
2019-05-14T02:19:37.295Z,1028.93
2019-05-14T02:20:37.288Z,1028.99
2019-05-14T02:21:37.274Z,1028.99
2019-05-14T02:22:37.292Z,1028.98
2019-05-14T02:23:37.257Z,1028.94
2019-05-14T02:24:37.242Z,1028.91
2019-05-14T02:25:37.227Z,1028.91
2019-05-14T02:26:37.216Z,1028.91
2019-05-14T02:27:37.235Z,1028.88
2019-05-14T02:28:37.193Z,1028.89
2019-05-14T02:29:37.187Z,1028.89
2019-05-14T02:30:51.189Z,1028.88
2019-05-14T02:31:39.303Z,1028.86
2019-05-14T02:32:40.369Z,1028.87
2019-05-14T02:33:39.704Z,1028.92
2019-05-14T02:34:39.838Z,1028.92
2019-05-14T02:35:39.741Z,1028.90
2019-05-14T02:36:39.862Z,1028.91
2019-05-14T02:37:40.214Z,1028.93
2019-05-14T02:38:38.921Z,1028.90
2019-05-14T02:39:40.588Z,1028.93
2019-05-14T02:40:40.151Z,1029.00
2019-05-14T02:41:39.192Z,1028.98
2019-05-14T02:42:40.232Z,1028.97
2019-05-14T02:43:40.651Z,1029.03
2019-05-14T02:44:40.319Z,1028.98
2019-05-14T02:45:45.193Z,1029.00
2019-05-14T02:46:40.529Z,1029.05
2019-05-14T02:47:39.720Z,1029.03
2019-05-14T02:48:40.184Z,1029.03
2019-05-14T02:49:39.933Z,1029.04
2019-05-14T02:50:39.466Z,1029.02
2019-05-14T02:51:39.168Z,1029.04
2019-05-14T02:52:39.909Z,1029.01
2019-05-14T02:53:39.107Z,1029.02
2019-05-14T02:54:40.012Z,1029.03
2019-05-14T02:55:39.042Z,1029.02
2019-05-14T02:56:39.981Z,1028.99
2019-05-14T02:57:39.382Z,1028.95
2019-05-14T02:58:39.892Z,1028.97
2019-05-14T02:59:39.333Z,1028.97
2019-05-14T03:00:40.426Z,1029.01
2019-05-14T03:01:40.511Z,1029.04
2019-05-14T03:02:40.027Z,1029.03
2019-05-14T03:03:39.848Z,1029.01
2019-05-14T03:04:39.593Z,1029.05
2019-05-14T03:05:39.918Z,1029.01
2019-05-14T03:06:39.393Z,1029.00
2019-05-14T03:07:39.441Z,1028.99
2019-05-14T03:08:39.055Z,1028.97
2019-05-14T03:09:39.961Z,1028.95
2019-05-14T03:10:39.968Z,1028.96
2019-05-14T03:11:39.997Z,1028.93
2019-05-14T03:12:39.536Z,1028.93
2019-05-14T03:13:39.763Z,1028.91
2019-05-14T03:14:39.310Z,1028.90
2019-05-14T03:15:39.159Z,1028.88
2019-05-14T03:16:40.081Z,1028.87
2019-05-14T03:17:40.070Z,1028.86
2019-05-14T03:18:39.535Z,1028.94
2019-05-14T03:19:36.634Z,1028.92
2019-05-14T03:20:38.994Z,1028.88
2019-05-14T03:21:39.560Z,1028.89
2019-05-14T03:22:52.490Z,1028.91
2019-05-14T03:23:39.366Z,1028.88
2019-05-14T03:24:39.414Z,1028.89
2019-05-14T03:25:39.774Z,1028.88
2019-05-14T03:26:39.518Z,1028.86
2019-05-14T03:27:40.127Z,1028.88
2019-05-14T03:28:39.789Z,1028.88
2019-05-14T03:29:39.803Z,1028.85
2019-05-14T03:30:41.705Z,1028.90
2019-05-14T03:31:41.902Z,1028.90
2019-05-14T03:32:42.500Z,1028.86
2019-05-14T03:33:43.129Z,1028.88
2019-05-14T03:34:43.194Z,1028.81
2019-05-14T03:35:44.342Z,1028.80
2019-05-14T03:37:39.041Z,1028.82
2019-05-14T03:38:39.466Z,1028.81
2019-05-14T03:39:39.425Z,1028.84
2019-05-14T03:40:36.383Z,1028.82
2019-05-14T03:41:39.362Z,1028.81
2019-05-14T03:42:39.645Z,1028.77
2019-05-14T03:43:39.126Z,1028.79
2019-05-14T03:44:39.553Z,1028.78
2019-05-14T03:45:38.927Z,1028.74
2019-05-14T03:46:48.589Z,1028.77
2019-05-14T03:47:39.401Z,1028.70
2019-05-14T03:48:36.294Z,1028.72
2019-05-14T03:49:39.378Z,1028.71
2019-05-14T03:50:38.894Z,1028.74
2019-05-14T03:51:39.147Z,1028.74
2019-05-14T03:52:39.637Z,1028.78
2019-05-14T03:53:52.242Z,1028.76
2019-05-14T03:54:40.221Z,1028.78
2019-05-14T03:55:40.002Z,1028.81
2019-05-14T03:56:39.203Z,1028.77
2019-05-14T03:57:39.590Z,1028.73
2019-05-14T03:58:39.101Z,1028.84
2019-05-14T03:59:40.058Z,1028.87
2019-05-14T04:00:39.036Z,1028.84
2019-05-14T04:01:39.692Z,1028.82
2019-05-14T04:02:38.941Z,1028.80
2019-05-14T04:03:39.588Z,1028.76
2019-05-14T04:04:39.116Z,1028.73
2019-05-14T04:05:37.110Z,1028.71
2019-05-14T04:06:36.094Z,1028.70
2019-05-14T04:07:39.103Z,1028.70
2019-05-14T04:08:38.962Z,1028.67
2019-05-14T04:09:36.066Z,1028.69
2019-05-14T04:10:39.114Z,1028.65
2019-05-14T04:11:36.048Z,1028.62
2019-05-14T04:12:36.025Z,1028.61
2019-05-14T04:13:36.015Z,1028.59
2019-05-14T04:14:36.022Z,1028.58
2019-05-14T04:15:39.051Z,1028.56
2019-05-14T04:16:35.975Z,1028.54
2019-05-14T04:17:38.764Z,1028.53
2019-05-14T04:18:40.287Z,1028.52
2019-05-14T04:19:39.160Z,1028.51
2019-05-14T04:20:39.116Z,1028.53
2019-05-14T04:21:35.928Z,1028.54
2019-05-14T04:22:39.088Z,1028.56
2019-05-14T04:23:39.306Z,1028.55
2019-05-14T04:24:37.056Z,1028.56
2019-05-14T04:25:38.911Z,1028.51
2019-05-14T04:26:53.192Z,1028.53
2019-05-14T04:27:39.877Z,1028.49
2019-05-14T04:28:38.950Z,1028.49
2019-05-14T04:29:39.420Z,1028.47
2019-05-14T04:30:35.828Z,1028.52
2019-05-14T04:31:38.898Z,1028.53
2019-05-14T04:32:35.818Z,1028.50
2019-05-14T04:33:39.011Z,1028.49
2019-05-14T04:34:39.193Z,1028.45
2019-05-14T04:35:35.765Z,1028.45
2019-05-14T04:36:39.020Z,1028.43
2019-05-14T04:37:35.753Z,1028.43
2019-05-14T04:38:35.729Z,1028.40
2019-05-14T04:39:35.723Z,1028.41
2019-05-14T04:40:35.713Z,1028.41
2019-05-14T04:41:39.108Z,1028.46
2019-05-14T04:42:35.683Z,1028.42
2019-05-14T04:43:35.676Z,1028.43
2019-05-14T04:44:35.659Z,1028.43
2019-05-14T04:45:35.649Z,1028.38
2019-05-14T04:46:35.668Z,1028.35
2019-05-14T04:47:37.395Z,1028.43
2019-05-14T04:48:42.325Z,1028.41
2019-05-14T04:49:39.569Z,1028.41
2019-05-14T04:50:35.593Z,1028.41
2019-05-14T04:51:35.617Z,1028.41
2019-05-14T04:52:35.571Z,1028.47
2019-05-14T04:53:35.561Z,1028.41
2019-05-14T04:54:35.560Z,1028.46
2019-05-14T04:55:35.568Z,1028.45
2019-05-14T04:56:35.551Z,1028.46
2019-05-14T04:57:35.515Z,1028.42
2019-05-14T04:58:35.508Z,1028.46
2019-05-14T04:59:35.490Z,1028.44
2019-05-14T05:00:35.479Z,1028.46
2019-05-14T05:01:35.480Z,1028.50
2019-05-14T05:02:35.494Z,1028.46
2019-05-14T05:03:35.453Z,1028.48
2019-05-14T05:04:35.443Z,1028.46
2019-05-14T05:05:35.422Z,1028.49
2019-05-14T05:06:35.454Z,1028.45
2019-05-14T05:07:35.399Z,1028.46
2019-05-14T05:08:35.402Z,1028.50
2019-05-14T05:09:35.374Z,1028.50
2019-05-14T05:10:35.365Z,1028.48
2019-05-14T05:11:35.351Z,1028.50
2019-05-14T05:12:35.365Z,1028.51
2019-05-14T05:13:35.333Z,1028.46
2019-05-14T05:14:35.319Z,1028.48
2019-05-14T05:15:35.309Z,1028.52
2019-05-14T05:16:35.303Z,1028.54
2019-05-14T05:17:44.257Z,1028.53
2019-05-14T05:18:36.270Z,1028.57
2019-05-14T05:19:35.265Z,1028.57
2019-05-14T05:20:35.252Z,1028.60
2019-05-14T05:21:35.239Z,1028.56
2019-05-14T05:22:35.249Z,1028.58
2019-05-14T05:23:35.216Z,1028.57
2019-05-14T05:24:35.214Z,1028.55
2019-05-14T05:25:35.190Z,1028.49
2019-05-14T05:26:35.179Z,1028.54
2019-05-14T05:27:35.202Z,1028.55
2019-05-14T05:28:35.159Z,1028.52
2019-05-14T05:29:35.151Z,1028.50
2019-05-14T05:30:35.134Z,1028.52
2019-05-14T05:31:35.124Z,1028.49
2019-05-14T05:32:35.170Z,1028.43
2019-05-14T05:33:35.103Z,1028.46
2019-05-14T05:34:35.150Z,1028.48
2019-05-14T05:35:35.093Z,1028.44
2019-05-14T05:36:35.090Z,1028.51
2019-05-14T05:37:35.136Z,1028.50
2019-05-14T05:38:35.052Z,1028.49
2019-05-14T05:39:35.039Z,1028.49
2019-05-14T05:40:35.025Z,1028.50
2019-05-14T05:41:35.023Z,1028.51
2019-05-14T05:42:35.105Z,1028.55
2019-05-14T05:43:35.012Z,1028.49
2019-05-14T05:44:35.083Z,1028.50
2019-05-14T05:45:34.968Z,1028.52
2019-05-14T05:46:34.979Z,1028.52
2019-05-14T05:47:34.946Z,1028.49
2019-05-14T05:48:35.035Z,1028.53
2019-05-14T05:49:34.919Z,1028.49
2019-05-14T05:50:34.931Z,1028.45
2019-05-14T05:51:34.902Z,1028.49
2019-05-14T05:52:34.935Z,1028.46
2019-05-14T05:53:34.961Z,1028.42
2019-05-14T05:54:34.930Z,1028.42
2019-05-14T05:55:34.853Z,1028.38
2019-05-14T05:56:34.859Z,1028.39
2019-05-14T05:57:34.848Z,1028.37
2019-05-14T05:58:34.885Z,1028.39
2019-05-14T05:59:34.810Z,1028.31
2019-05-14T06:00:34.801Z,1028.35
2019-05-14T06:01:44.850Z,1028.35
2019-05-14T06:02:35.790Z,1028.35
2019-05-14T06:03:34.822Z,1028.37
2019-05-14T06:04:34.776Z,1028.35
2019-05-14T06:05:34.753Z,1028.39
2019-05-14T06:06:34.727Z,1028.39
2019-05-14T06:07:34.733Z,1028.34
2019-05-14T06:08:34.753Z,1028.28
2019-05-14T06:09:34.716Z,1028.34
2019-05-14T06:10:34.684Z,1028.28
2019-05-14T06:11:34.677Z,1028.30
2019-05-14T06:12:34.676Z,1028.31
2019-05-14T06:13:34.689Z,1028.31
2019-05-14T06:14:34.655Z,1028.32
2019-05-14T06:15:47.594Z,1028.29
2019-05-14T06:16:35.617Z,1028.26
2019-05-14T06:17:34.605Z,1028.31
2019-05-14T06:18:34.725Z,1028.29
2019-05-14T06:19:34.587Z,1028.29
2019-05-14T06:20:34.592Z,1028.24
2019-05-14T06:21:34.606Z,1028.23
2019-05-14T06:22:34.556Z,1028.20
2019-05-14T06:23:34.570Z,1028.21
2019-05-14T06:24:34.573Z,1028.22
2019-05-14T06:25:34.527Z,1028.18
2019-05-14T06:26:34.533Z,1028.16
2019-05-14T06:27:34.499Z,1028.20
2019-05-14T06:28:34.489Z,1028.14
2019-05-14T06:29:34.513Z,1028.14
2019-05-14T06:30:34.476Z,1028.15
2019-05-14T06:31:34.465Z,1028.16
2019-05-14T06:32:34.458Z,1028.13
2019-05-14T06:33:34.429Z,1028.17
2019-05-14T06:34:34.491Z,1028.15
2019-05-14T06:35:34.418Z,1028.13
2019-05-14T06:36:34.420Z,1028.17
2019-05-14T06:37:34.399Z,1028.11
2019-05-14T06:38:34.386Z,1028.12
2019-05-14T06:39:34.406Z,1028.14
2019-05-14T06:40:34.356Z,1028.10
2019-05-14T06:41:34.341Z,1028.13
2019-05-14T06:42:34.392Z,1028.10
2019-05-14T06:43:34.343Z,1028.12
2019-05-14T06:44:34.343Z,1028.12
2019-05-14T06:45:34.294Z,1028.14
2019-05-14T06:46:34.288Z,1028.10
2019-05-14T06:47:34.282Z,1028.06
2019-05-14T06:48:34.880Z,1028.09
2019-05-14T06:49:34.282Z,1028.14
2019-05-14T06:50:34.247Z,1028.13
2019-05-14T06:51:34.228Z,1028.15
2019-05-14T06:52:34.224Z,1028.15
2019-05-14T06:53:34.209Z,1028.17
2019-05-14T06:54:34.240Z,1028.12
2019-05-14T06:55:34.196Z,1028.15
2019-05-14T06:56:34.173Z,1028.15
2019-05-14T06:57:34.165Z,1028.13
2019-05-14T06:58:34.149Z,1028.13
2019-05-14T06:59:34.194Z,1028.15
2019-05-14T07:00:34.150Z,1028.16
2019-05-14T07:01:34.130Z,1028.14
2019-05-14T07:02:34.103Z,1028.13
2019-05-14T07:03:34.100Z,1028.15
2019-05-14T07:04:34.119Z,1028.18
2019-05-14T07:05:34.096Z,1028.14
2019-05-14T07:06:34.058Z,1028.14
2019-05-14T07:07:34.054Z,1028.14
2019-05-14T07:08:34.049Z,1028.14
2019-05-14T07:09:34.064Z,1028.16
2019-05-14T07:10:34.051Z,1028.15
2019-05-14T07:11:34.006Z,1028.16
2019-05-14T07:12:34.000Z,1028.19
2019-05-14T07:13:33.989Z,1028.16
2019-05-14T07:14:33.972Z,1028.14
2019-05-14T07:15:33.985Z,1028.11
2019-05-14T07:16:33.956Z,1028.12
2019-05-14T07:17:33.970Z,1028.14
2019-05-14T07:18:48.573Z,1028.10
2019-05-14T07:19:34.928Z,1028.12
2019-05-14T07:20:33.934Z,1028.12
2019-05-14T07:21:33.905Z,1028.18
2019-05-14T07:22:33.886Z,1028.19
2019-05-14T07:23:33.868Z,1028.16
2019-05-14T07:24:37.003Z,1028.16
2019-05-14T07:25:34.877Z,1028.20
2019-05-14T07:26:33.836Z,1028.13
2019-05-14T07:27:33.828Z,1028.12
2019-05-14T07:28:33.818Z,1028.11
2019-05-14T07:29:33.807Z,1028.16
2019-05-14T07:30:33.818Z,1028.14
2019-05-14T07:31:33.782Z,1028.17
2019-05-14T07:32:33.767Z,1028.14
2019-05-14T07:33:33.756Z,1028.13
2019-05-14T07:34:33.751Z,1028.17
2019-05-14T07:35:33.765Z,1028.17
2019-05-14T07:36:33.724Z,1028.17
2019-05-14T07:37:33.715Z,1028.17
2019-05-14T07:38:33.700Z,1028.20
2019-05-14T07:39:33.694Z,1028.20
2019-05-14T07:40:33.696Z,1028.20
2019-05-14T07:41:33.713Z,1028.15
2019-05-14T07:42:33.659Z,1028.16
2019-05-14T07:43:33.648Z,1028.15
2019-05-14T07:44:33.633Z,1028.16
2019-05-14T07:45:33.658Z,1028.16
2019-05-14T07:46:33.663Z,1028.18
2019-05-14T07:47:33.603Z,1028.20
2019-05-14T07:48:33.586Z,1028.18
2019-05-14T07:49:33.595Z,1028.14
2019-05-14T07:50:33.578Z,1028.16
2019-05-14T07:51:33.576Z,1028.12
2019-05-14T07:52:33.554Z,1028.13
2019-05-14T07:53:38.517Z,1028.12
2019-05-14T07:54:34.543Z,1028.11
2019-05-14T07:55:33.512Z,1028.08
2019-05-14T07:56:33.523Z,1028.09
2019-05-14T07:57:33.490Z,1028.07
2019-05-14T07:58:33.475Z,1028.12
2019-05-14T07:59:33.466Z,1028.12
2019-05-14T08:00:33.468Z,1028.12
2019-05-14T08:01:33.490Z,1028.14
2019-05-14T08:02:33.437Z,1028.09
2019-05-14T08:03:33.427Z,1028.12
2019-05-14T08:04:33.417Z,1028.11
2019-05-14T08:05:33.395Z,1028.12
2019-05-14T08:06:33.422Z,1028.10
2019-05-14T08:07:33.385Z,1028.10
2019-05-14T08:08:33.368Z,1028.09
2019-05-14T08:09:33.386Z,1028.10
2019-05-14T08:10:33.343Z,1028.11
2019-05-14T08:11:33.358Z,1028.11
2019-05-14T08:12:33.325Z,1028.12
2019-05-14T08:13:33.312Z,1028.09
2019-05-14T08:14:41.900Z,1028.07
2019-05-14T08:15:34.288Z,1028.09
2019-05-14T08:16:33.287Z,1028.11
2019-05-14T08:17:33.320Z,1028.09
2019-05-14T08:18:33.261Z,1028.08
2019-05-14T08:19:34.503Z,1028.12
2019-05-14T08:20:33.237Z,1028.07
2019-05-14T08:21:33.254Z,1028.12
2019-05-14T08:22:33.254Z,1028.11
2019-05-14T08:23:33.199Z,1028.06
2019-05-14T08:24:33.192Z,1028.11
2019-05-14T08:25:33.196Z,1028.06
2019-05-14T08:26:33.218Z,1028.05
2019-05-14T08:27:33.154Z,1028.08
2019-05-14T08:28:33.146Z,1028.05
2019-05-14T08:30:34.244Z,1028.00
2019-05-14T08:31:33.109Z,1027.98
2019-05-14T08:32:33.132Z,1027.93
2019-05-14T08:33:33.091Z,1027.94
2019-05-14T08:34:33.083Z,1027.94
2019-05-14T08:35:35.133Z,1027.89
2019-05-14T08:36:33.076Z,1027.89
2019-05-14T08:37:33.068Z,1027.85
2019-05-14T08:38:33.031Z,1027.86
2019-05-14T08:39:33.022Z,1027.81
2019-05-14T08:40:33.011Z,1027.76
2019-05-14T08:41:33.004Z,1027.76
2019-05-14T08:42:34.374Z,1027.73
2019-05-14T08:43:32.999Z,1027.63
2019-05-14T08:44:33.027Z,1027.66
2019-05-14T08:45:33.095Z,1027.62
2019-05-14T08:46:32.963Z,1027.61
2019-05-14T08:47:33.155Z,1027.60
2019-05-14T08:48:32.926Z,1027.61
2019-05-14T08:49:41.961Z,1027.52
2019-05-14T08:50:33.902Z,1027.54
2019-05-14T08:51:32.962Z,1027.57
2019-05-14T08:52:32.911Z,1027.53
2019-05-14T08:53:32.872Z,1027.51
2019-05-14T08:54:32.862Z,1027.45
2019-05-14T08:55:32.908Z,1027.52
2019-05-14T08:56:32.846Z,1027.56
2019-05-14T08:57:32.998Z,1027.57
2019-05-14T08:58:32.833Z,1027.64
2019-05-14T08:59:32.803Z,1027.59
2019-05-14T09:00:32.796Z,1027.59
2019-05-14T09:01:32.795Z,1027.57
2019-05-14T09:02:32.782Z,1027.61
2019-05-14T09:03:32.792Z,1027.64
2019-05-14T09:04:32.761Z,1027.61
2019-05-14T09:05:32.730Z,1027.63
2019-05-14T09:06:32.724Z,1027.64
2019-05-14T09:07:32.709Z,1027.66
2019-05-14T09:08:32.773Z,1027.64
2019-05-14T09:09:32.687Z,1027.61
2019-05-14T09:10:32.674Z,1027.60
2019-05-14T09:11:35.675Z,1027.53
2019-05-14T09:12:32.653Z,1027.51
2019-05-14T09:13:32.732Z,1027.56
2019-05-14T09:14:32.633Z,1027.56
2019-05-14T09:15:32.627Z,1027.49
2019-05-14T09:16:43.199Z,1027.53
2019-05-14T09:17:33.589Z,1027.44
2019-05-14T09:18:32.634Z,1027.44
2019-05-14T09:19:32.576Z,1027.47
2019-05-14T09:20:32.567Z,1027.54
2019-05-14T09:21:32.553Z,1027.55
2019-05-14T09:22:32.540Z,1027.54
2019-05-14T09:23:32.559Z,1027.55
2019-05-14T09:24:32.529Z,1027.49
2019-05-14T09:25:32.562Z,1027.49
2019-05-14T09:26:32.498Z,1027.46
2019-05-14T09:27:32.482Z,1027.48
2019-05-14T09:28:32.507Z,1027.47
2019-05-14T09:29:32.495Z,1027.47
2019-05-14T09:30:32.477Z,1027.47
2019-05-14T09:31:32.450Z,1027.47
2019-05-14T09:32:32.426Z,1027.46
2019-05-14T09:33:32.455Z,1027.47
2019-05-14T09:34:32.403Z,1027.47
2019-05-14T09:35:32.387Z,1027.46
2019-05-14T09:36:32.378Z,1027.48
2019-05-14T09:37:32.374Z,1027.46
2019-05-14T09:38:32.350Z,1027.49
2019-05-14T09:39:32.379Z,1027.49
2019-05-14T09:40:32.363Z,1027.48
2019-05-14T09:41:32.321Z,1027.49
2019-05-14T09:42:32.311Z,1027.47
2019-05-14T09:43:32.294Z,1027.44
2019-05-14T09:44:32.321Z,1027.43
2019-05-14T09:45:32.284Z,1027.46
2019-05-14T09:46:32.264Z,1027.46
2019-05-14T09:47:32.253Z,1027.40
2019-05-14T09:48:32.337Z,1027.46
2019-05-14T09:49:32.231Z,1027.44
2019-05-14T09:50:32.216Z,1027.44
2019-05-14T09:51:32.200Z,1027.55
2019-05-14T09:52:32.194Z,1027.45
2019-05-14T09:53:32.204Z,1027.50
2019-05-14T09:54:32.230Z,1027.51
2019-05-14T09:55:32.164Z,1027.47
2019-05-14T09:56:32.151Z,1027.50
2019-05-14T09:57:32.132Z,1027.52
2019-05-14T09:58:32.121Z,1027.42
2019-05-14T09:59:32.156Z,1027.44
2019-05-14T10:00:32.215Z,1027.43
2019-05-14T10:01:32.087Z,1027.35
2019-05-14T10:02:32.188Z,1027.34
2019-05-14T10:03:32.073Z,1027.28
2019-05-14T10:04:32.142Z,1027.26
2019-05-14T10:05:32.047Z,1027.30
2019-05-14T10:06:32.061Z,1027.21
2019-05-14T10:07:32.043Z,1027.30
2019-05-14T10:08:32.018Z,1027.24
2019-05-14T10:09:32.031Z,1027.32
2019-05-14T10:10:32.030Z,1027.27
2019-05-14T10:11:31.976Z,1027.30
2019-05-14T10:12:31.967Z,1027.28
2019-05-14T10:13:31.958Z,1027.22
2019-05-14T10:14:31.937Z,1027.22
2019-05-14T10:15:31.963Z,1027.21
2019-05-14T10:16:31.917Z,1027.20
2019-05-14T10:17:31.912Z,1027.22
2019-05-14T10:18:31.892Z,1027.17
2019-05-14T10:19:31.885Z,1027.16
2019-05-14T10:20:41.115Z,1027.08
2019-05-14T10:21:32.887Z,1027.15
2019-05-14T10:22:31.851Z,1027.10
2019-05-14T10:23:31.845Z,1027.13
2019-05-14T10:24:31.833Z,1027.06
2019-05-14T10:25:31.841Z,1027.00
2019-05-14T10:26:31.806Z,1027.00
2019-05-14T10:27:31.800Z,1026.96
2019-05-14T10:28:31.781Z,1027.00
2019-05-14T10:29:31.773Z,1027.07
2019-05-14T10:30:31.814Z,1027.05
2019-05-14T10:31:31.781Z,1027.03
2019-05-14T10:32:31.770Z,1026.99
2019-05-14T10:33:31.720Z,1026.96
2019-05-14T10:34:31.714Z,1027.01
2019-05-14T10:35:31.731Z,1026.99
2019-05-14T10:36:31.720Z,1027.00
2019-05-14T10:37:31.679Z,1026.98
2019-05-14T10:38:31.671Z,1027.00
2019-05-14T10:39:31.653Z,1027.02
2019-05-14T10:40:31.648Z,1026.92
2019-05-14T10:41:31.659Z,1026.90
2019-05-14T10:42:31.620Z,1026.90
2019-05-14T10:43:31.632Z,1026.91
2019-05-14T10:44:31.600Z,1026.88
2019-05-14T10:45:31.583Z,1026.84
2019-05-14T10:46:31.600Z,1026.87
2019-05-14T10:47:31.576Z,1026.82
2019-05-14T10:48:31.554Z,1026.86
2019-05-14T10:49:31.545Z,1026.80
2019-05-14T10:50:31.530Z,1026.81
2019-05-14T10:51:31.556Z,1026.78
2019-05-14T10:52:31.512Z,1026.71
2019-05-14T10:53:31.492Z,1026.72
2019-05-14T10:54:31.479Z,1026.73
2019-05-14T10:55:31.478Z,1026.77
2019-05-14T10:56:31.496Z,1026.71
2019-05-14T10:57:31.455Z,1026.74
2019-05-14T10:58:31.437Z,1026.73
2019-05-14T10:59:31.441Z,1026.72
2019-05-14T11:00:31.422Z,1026.72
2019-05-14T11:01:31.431Z,1026.73
2019-05-14T11:02:31.398Z,1026.65
2019-05-14T11:03:31.404Z,1026.68
2019-05-14T11:04:34.332Z,1026.65
2019-05-14T11:05:31.402Z,1026.61
2019-05-14T11:06:31.401Z,1026.63
2019-05-14T11:07:31.437Z,1026.64
2019-05-14T11:08:31.328Z,1026.65
2019-05-14T11:09:31.390Z,1026.64
2019-05-14T11:10:31.304Z,1026.62
2019-05-14T11:11:31.336Z,1026.67
2019-05-14T11:12:31.281Z,1026.67
2019-05-14T11:13:31.269Z,1026.66
2019-05-14T11:14:31.877Z,1026.66
2019-05-14T11:15:31.248Z,1026.62
2019-05-14T11:16:31.264Z,1026.60
2019-05-14T11:17:31.309Z,1026.54
2019-05-14T11:18:31.219Z,1026.55
2019-05-14T11:19:31.243Z,1026.52
2019-05-14T11:20:31.397Z,1026.50
2019-05-14T11:21:31.202Z,1026.53
2019-05-14T11:22:31.214Z,1026.51
2019-05-14T11:23:31.158Z,1026.49
2019-05-14T11:24:31.178Z,1026.51
2019-05-14T11:25:31.137Z,1026.42
2019-05-14T11:26:31.134Z,1026.39
2019-05-14T11:27:31.147Z,1026.40
2019-05-14T11:28:31.095Z,1026.40
2019-05-14T11:29:31.095Z,1026.39
2019-05-14T11:30:31.094Z,1026.48
2019-05-14T11:31:34.217Z,1026.36
2019-05-14T11:32:31.080Z,1026.34
2019-05-14T11:33:31.086Z,1026.23
2019-05-14T11:34:31.031Z,1026.24
2019-05-14T11:35:31.034Z,1026.19
2019-05-14T11:36:31.019Z,1026.26
2019-05-14T11:37:31.047Z,1026.22
2019-05-14T11:38:37.280Z,1026.24
2019-05-14T11:39:31.975Z,1026.19
2019-05-14T11:40:30.971Z,1026.18
2019-05-14T11:41:30.959Z,1026.19
2019-05-14T11:42:31.625Z,1026.16
2019-05-14T11:43:30.934Z,1026.16
2019-05-14T11:44:30.921Z,1026.08
2019-05-14T11:45:30.905Z,1026.12
2019-05-14T11:46:44.578Z,1026.05
2019-05-14T11:47:31.915Z,1026.03
2019-05-14T11:48:30.915Z,1026.02
2019-05-14T11:49:30.867Z,1026.08
2019-05-14T11:50:30.856Z,1026.04
2019-05-14T11:51:58.428Z,1025.92
2019-05-14T11:52:31.832Z,1025.96
2019-05-14T11:53:30.842Z,1025.94
2019-05-14T11:54:30.812Z,1025.95
2019-05-14T11:55:30.813Z,1025.93
2019-05-14T11:56:30.786Z,1025.96
2019-05-14T11:57:30.779Z,1025.99
2019-05-14T11:58:30.806Z,1025.99
2019-05-14T11:59:30.752Z,1026.01
2019-05-14T12:00:30.761Z,1025.97
2019-05-14T12:01:30.728Z,1025.94
2019-05-14T12:02:30.728Z,1025.96
2019-05-14T12:03:30.735Z,1025.93
2019-05-14T12:04:30.697Z,1025.95
2019-05-14T12:05:30.710Z,1026.00
2019-05-14T12:06:30.696Z,1025.95
2019-05-14T12:07:30.666Z,1025.95